• Join FlightAware (Why Join?)
  • Login
  • US Flag 
08:05PM EDT


 

Airport Tracker/Info


-or-


 

Live Flight TrackerFlight Track Log ✈ DAL6139 ✈ 25-Jul-2013 ✈ KPIT - KDTW

Flight Track Log - Related Links

Times and Time Zones

All times are in EDT time to prevent confusion due to time zone crossing. See the DAL6139 flight status page for this flight to view local times or setup timezone preferences in your user account.

Time Position Orientation Groundspeed Altitude Reporting Facility
EDT Latitude Longitude Course Direction KTS MPH feet Rate Location/Type
06:58AM 40.5598 -80.5871 284° West  Level FlightAware Approximate
06:59AM 40.5825 -80.7119 283° West  Level FlightAware Approximate
06:59AM 40.5628 -80.2689 286° West 245 282 10,200  Level Cleveland Center
07:00AM 40.6127 -80.8339 288° West  Level FlightAware Approximate
07:00AM 40.5756 -80.3561 281° West 245 282 11,900  Level Cleveland Center
07:01AM 40.6394 -80.9574 288° West  Level FlightAware Approximate
07:01AM 40.5944 -80.4600 283° West 269 310 13,600  Level Cleveland Center
07:02AM 40.6603 -81.0825 279° West  Level FlightAware Approximate
07:02AM 40.6133 -80.5722 283° West 295 339 15,700  Level Cleveland Center
07:03AM 40.6850 -81.2065 288° West  Level FlightAware Approximate
07:03AM 40.6592 -80.6681 302° West 300 345 17,700  Level Cleveland Center
07:04AM 40.7139 -81.3292 286° West  Level FlightAware Approximate
07:04AM 40.7111 -80.7667 305° West 317 365 18,000  Level Cleveland Center
07:05AM 40.7608 -80.8736 302° West 330 380 18,000  Level Cleveland Center
07:06AM 40.8128 -80.9808 303° West 335 386 18,000  Level Cleveland Center
07:07AM 40.8603 -81.0936 299° West 347 399 18,000  Level Cleveland Center
07:08AM 40.9181 -81.2125 303° West 354 407 18,000  Level Cleveland Center
07:09AM 40.9694 -81.3228 302° West 360 414 18,000  Level Cleveland Center
07:10AM 41.0208 -81.4336 302° West 355 409 18,000  Level Cleveland Center
07:11AM 41.0700 -81.5417 301° West 355 409 18,000  Level Cleveland Center
07:12AM 41.1233 -81.6525 303° West 355 409 18,000  Level Cleveland Center
07:13AM 41.1661 -81.7525 300° West 350 403 18,000  Level Cleveland Center
07:14AM 41.2211 -81.8586 305° West 350 403 18,000  Level Cleveland Center
07:15AM 41.2742 -81.9700 302° West 350 403 18,000  Level Cleveland Center
07:16AM 41.3186 -82.0817 298° West 345 397 18,000  Level Cleveland Center
07:17AM 41.3733 -82.1936 303° West 357 411 18,000  Level Cleveland Center
07:18AM 41.4406 -82.3033 309° West 357 411 18,000  Level Cleveland Center
07:19AM 41.4994 -82.4019 309° West 352 405 18,000 -720 Level Cleveland Center
07:20AM 41.5561 -82.4978 308° West 347 399 16,700 -2,100 Descending Cleveland Center
07:21AM 41.6169 -82.6050 307° West 345 397 13,900 -2,280 Descending Cleveland Center
07:22AM 41.6656 -82.6817 310° West 320 368 12,300 -900 Descending Cleveland Center
07:23AM 41.7142 -82.7639 308° West 282 325 12,200 -60 Descending Cleveland Center
07:24AM 41.7772 -82.8414 318° Northwest 281 323 12,200  Level Cleveland Center
07:25AM 41.8361 -82.9158 317° Northwest 287 330 12,200  Level Cleveland Center
07:26AM 41.8950 -82.9878 318° Northwest 290 334 12,200  Level Cleveland Center
07:27AM 41.9581 -83.0628 319° Northwest 287 330 12,200  Level Cleveland Center
07:28AM 42.0131 -83.1264 319° Northwest 295 339 12,200  Level Cleveland Center
07:29AM 42.0653 -83.2094 310° West 287 330 12,200  Level Cleveland Center
07:30AM 42.1006 -83.3119 295° West 291 335 12,200  Level Cleveland Center
07:31AM 42.1378 -83.4142 296° West 295 339 12,200  Level Cleveland Center
07:32AM 42.2092 -83.4678 331° Northwest 293 337 12,200 -840 Level Cleveland Center
07:33AM 42.2864 -83.4658 North 285 328 10,600 -1,320 Descending Cleveland Center
07:34AM 42.3522 -83.4211 27° Northeast 251 289 9,600 -1,260 Descending Cleveland Center
07:35AM 42.4219 -83.3819 23° Northeast 241 277 8,000 -1,500 Descending Cleveland Center
07:36AM 42.4486 -83.3156 61° Northeast 236 272 6,500 -1,500 Descending Cleveland Center
07:37AM 42.3953 -83.2767 152° Southeast 226 260 5,000 -1,500 Descending Cleveland Center